<?xml version="1.0" encoding="UTF-8" standalone="no" ?>
<gpx xmlns="http://www.topografix.com/GPX/1/1" xmlns:xsi="http://www.w3.org/2001/XMLSchema-instance" xsi:schemaLocation="http://www.topografix.com/GPX/1/1 http://www.topografix.com/GPX/1/1/gpx.xsd" version="1.1" creator="VisuGPX - https://www.visugpx.com">
  <metadata>
    <name>boucles beaumont</name>
    <desc><![CDATA[boucles beaumont du périgord]]></desc>
  </metadata>
  <trk>
    <name><![CDATA[BBmt62]]></name>
    <trkseg>
      <trkpt lat="44.7509" lon="0.82335">
        <ele>94</ele>
        <time>2009-01-20T13:14:23Z</time>
      </trkpt>
      <trkpt lat="44.75078" lon="0.8236">
        <ele>87</ele>
        <time>2009-01-20T13:14:58Z</time>
      </trkpt>
      <trkpt lat="44.7507" lon="0.82385">
        <ele>88</ele>
        <time>2009-01-20T13:15:03Z</time>
      </trkpt>
      <trkpt lat="44.75063" lon="0.82413">
        <ele>91</ele>
        <time>2009-01-20T13:15:11Z</time>
      </trkpt>
      <trkpt lat="44.75063" lon="0.8244">
        <ele>99</ele>
        <time>2009-01-20T13:15:18Z</time>
      </trkpt>
      <trkpt lat="44.75055" lon="0.82468">
        <ele>101</ele>
        <time>2009-01-20T13:15:24Z</time>
      </trkpt>
      <trkpt lat="44.75048" lon="0.82493">
        <ele>108</ele>
        <time>2009-01-20T13:15:28Z</time>
      </trkpt>
      <trkpt lat="44.75038" lon="0.8252">
        <ele>113</ele>
        <time>2009-01-20T13:15:34Z</time>
      </trkpt>
      <trkpt lat="44.75033" lon="0.8255">
        <ele>122</ele>
        <time>2009-01-20T13:15:39Z</time>
      </trkpt>
      <trkpt lat="44.75023" lon="0.82578">
        <ele>128</ele>
        <time>2009-01-20T13:15:44Z</time>
      </trkpt>
      <trkpt lat="44.75013" lon="0.82608">
        <ele>138</ele>
        <time>2009-01-20T13:15:50Z</time>
      </trkpt>
      <trkpt lat="44.75005" lon="0.82633">
        <ele>142</ele>
        <time>2009-01-20T13:15:55Z</time>
      </trkpt>
      <trkpt lat="44.75" lon="0.8266">
        <ele>143</ele>
        <time>2009-01-20T13:16:00Z</time>
      </trkpt>
      <trkpt lat="44.74993" lon="0.82685">
        <ele>146</ele>
        <time>2009-01-20T13:16:06Z</time>
      </trkpt>
      <trkpt lat="44.74983" lon="0.82713">
        <ele>146</ele>
        <time>2009-01-20T13:16:12Z</time>
      </trkpt>
      <trkpt lat="44.74973" lon="0.82735">
        <ele>148</ele>
        <time>2009-01-20T13:16:18Z</time>
      </trkpt>
      <trkpt lat="44.74958" lon="0.82753">
        <ele>145</ele>
        <time>2009-01-20T13:16:27Z</time>
      </trkpt>
      <trkpt lat="44.7494" lon="0.82773">
        <ele>142</ele>
        <time>2009-01-20T13:16:35Z</time>
      </trkpt>
      <trkpt lat="44.74923" lon="0.82785">
        <ele>134</ele>
        <time>2009-01-20T13:16:55Z</time>
      </trkpt>
      <trkpt lat="44.74908" lon="0.82805">
        <ele>124</ele>
        <time>2009-01-20T13:17:52Z</time>
      </trkpt>
      <trkpt lat="44.74898" lon="0.82828">
        <ele>130</ele>
        <time>2009-01-20T13:17:59Z</time>
      </trkpt>
      <trkpt lat="44.74885" lon="0.82848">
        <ele>143</ele>
        <time>2009-01-20T13:18:40Z</time>
      </trkpt>
      <trkpt lat="44.74863" lon="0.8285">
        <ele>148</ele>
        <time>2009-01-20T13:18:50Z</time>
      </trkpt>
      <trkpt lat="44.7484" lon="0.82855">
        <ele>151</ele>
        <time>2009-01-20T13:18:56Z</time>
      </trkpt>
      <trkpt lat="44.7482" lon="0.8286">
        <ele>154</ele>
        <time>2009-01-20T13:19:02Z</time>
      </trkpt>
      <trkpt lat="44.748" lon="0.82868">
        <ele>158</ele>
        <time>2009-01-20T13:19:09Z</time>
      </trkpt>
      <trkpt lat="44.74783" lon="0.82875">
        <ele>161</ele>
        <time>2009-01-20T13:19:17Z</time>
      </trkpt>
      <trkpt lat="44.74768" lon="0.8289">
        <ele>162</ele>
        <time>2009-01-20T13:19:23Z</time>
      </trkpt>
      <trkpt lat="44.7475" lon="0.82903">
        <ele>166</ele>
        <time>2009-01-20T13:19:29Z</time>
      </trkpt>
      <trkpt lat="44.74728" lon="0.82903">
        <ele>167</ele>
        <time>2009-01-20T13:19:34Z</time>
      </trkpt>
      <trkpt lat="44.74705" lon="0.82898">
        <ele>164</ele>
        <time>2009-01-20T13:19:39Z</time>
      </trkpt>
      <trkpt lat="44.74688" lon="0.8289">
        <ele>165</ele>
        <time>2009-01-20T13:19:43Z</time>
      </trkpt>
      <trkpt lat="44.74665" lon="0.82888">
        <ele>167</ele>
        <time>2009-01-20T13:19:49Z</time>
      </trkpt>
      <trkpt lat="44.74643" lon="0.82888">
        <ele>170</ele>
        <time>2009-01-20T13:19:53Z</time>
      </trkpt>
      <trkpt lat="44.7462" lon="0.82888">
        <ele>172</ele>
        <time>2009-01-20T13:19:57Z</time>
      </trkpt>
      <trkpt lat="44.74598" lon="0.8289">
        <ele>175</ele>
        <time>2009-01-20T13:20:02Z</time>
      </trkpt>
      <trkpt lat="44.74575" lon="0.8289">
        <ele>174</ele>
        <time>2009-01-20T13:20:06Z</time>
      </trkpt>
      <trkpt lat="44.74555" lon="0.8289">
        <ele>173</ele>
        <time>2009-01-20T13:20:09Z</time>
      </trkpt>
      <trkpt lat="44.74535" lon="0.82888">
        <ele>171</ele>
        <time>2009-01-20T13:20:12Z</time>
      </trkpt>
      <trkpt lat="44.74513" lon="0.8288">
        <ele>170</ele>
        <time>2009-01-20T13:20:16Z</time>
      </trkpt>
      <trkpt lat="44.74493" lon="0.82865">
        <ele>171</ele>
        <time>2009-01-20T13:20:20Z</time>
      </trkpt>
      <trkpt lat="44.74473" lon="0.8285">
        <ele>170</ele>
        <time>2009-01-20T13:20:24Z</time>
      </trkpt>
      <trkpt lat="44.74453" lon="0.8284">
        <ele>168</ele>
        <time>2009-01-20T13:20:28Z</time>
      </trkpt>
      <trkpt lat="44.74433" lon="0.82835">
        <ele>166</ele>
        <time>2009-01-20T13:20:32Z</time>
      </trkpt>
      <trkpt lat="44.7441" lon="0.82828">
        <ele>165</ele>
        <time>2009-01-20T13:20:37Z</time>
      </trkpt>
      <trkpt lat="44.74393" lon="0.82835">
        <ele>165</ele>
        <time>2009-01-20T13:20:41Z</time>
      </trkpt>
      <trkpt lat="44.74373" lon="0.8285">
        <ele>164</ele>
        <time>2009-01-20T13:20:45Z</time>
      </trkpt>
      <trkpt lat="44.74355" lon="0.82868">
        <ele>164</ele>
        <time>2009-01-20T13:20:49Z</time>
      </trkpt>
      <trkpt lat="44.74343" lon="0.82888">
        <ele>164</ele>
        <time>2009-01-20T13:20:52Z</time>
      </trkpt>
      <trkpt lat="44.74328" lon="0.82913">
        <ele>163</ele>
        <time>2009-01-20T13:20:56Z</time>
      </trkpt>
      <trkpt lat="44.74318" lon="0.82935">
        <ele>163</ele>
        <time>2009-01-20T13:20:59Z</time>
      </trkpt>
      <trkpt lat="44.74308" lon="0.82958">
        <ele>162</ele>
        <time>2009-01-20T13:21:02Z</time>
      </trkpt>
      <trkpt lat="44.74293" lon="0.82975">
        <ele>163</ele>
        <time>2009-01-20T13:21:05Z</time>
      </trkpt>
      <trkpt lat="44.74273" lon="0.82988">
        <ele>164</ele>
        <time>2009-01-20T13:21:09Z</time>
      </trkpt>
      <trkpt lat="44.74255" lon="0.82998">
        <ele>164</ele>
        <time>2009-01-20T13:21:12Z</time>
      </trkpt>
      <trkpt lat="44.74233" lon="0.82993">
        <ele>162</ele>
        <time>2009-01-20T13:21:16Z</time>
      </trkpt>
      <trkpt lat="44.74215" lon="0.82983">
        <ele>162</ele>
        <time>2009-01-20T13:21:21Z</time>
      </trkpt>
    </trkseg>
  </trk>
</gpx>